sensor_id;sensor_type;location;lat;lon;timestamp;P1;durP1;ratioP1;P2;durP2;ratioP2
21110;SDS011;10713;51.912;4.494;2024-02-16T00:01:01;4.05;;;1.80;;
21110;SDS011;10713;51.912;4.494;2024-02-16T00:03:27;5.55;;;2.30;;
21110;SDS011;10713;51.912;4.494;2024-02-16T00:05:53;3.60;;;1.60;;
21110;SDS011;10713;51.912;4.494;2024-02-16T00:08:19;3.63;;;2.25;;
21110;SDS011;10713;51.912;4.494;2024-02-16T00:10:45;5.38;;;2.15;;
21110;SDS011;10713;51.912;4.494;2024-02-16T00:13:11;4.65;;;2.15;;
21110;SDS011;10713;51.912;4.494;2024-02-16T00:15:36;4.38;;;1.75;;
21110;SDS011;10713;51.912;4.494;2024-02-16T00:18:03;2.92;;;1.65;;
21110;SDS011;10713;51.912;4.494;2024-02-16T00:20:29;6.30;;;1.92;;
21110;SDS011;10713;51.912;4.494;2024-02-16T00:22:56;5.75;;;2.22;;
21110;SDS011;10713;51.912;4.494;2024-02-16T00:25:22;4.93;;;2.17;;
21110;SDS011;10713;51.912;4.494;2024-02-16T00:27:47;3.45;;;1.73;;
21110;SDS011;10713;51.912;4.494;2024-02-16T00:30:13;3.28;;;1.77;;
21110;SDS011;10713;51.912;4.494;2024-02-16T00:32:40;4.35;;;2.22;;
21110;SDS011;10713;51.912;4.494;2024-02-16T00:35:06;4.78;;;1.90;;
21110;SDS011;10713;51.912;4.494;2024-02-16T00:37:31;4.85;;;1.90;;
21110;SDS011;10713;51.912;4.494;2024-02-16T00:39:56;4.65;;;2.13;;
21110;SDS011;10713;51.912;4.494;2024-02-16T00:42:22;5.63;;;2.13;;
21110;SDS011;10713;51.912;4.494;2024-02-16T00:44:48;5.57;;;2.15;;
21110;SDS011;10713;51.912;4.494;2024-02-16T00:47:14;3.63;;;2.05;;
21110;SDS011;10713;51.912;4.494;2024-02-16T00:49:41;3.67;;;1.90;;
21110;SDS011;10713;51.912;4.494;2024-02-16T00:52:08;2.53;;;1.40;;
21110;SDS011;10713;51.912;4.494;2024-02-16T00:54:35;3.35;;;1.92;;
21110;SDS011;10713;51.912;4.494;2024-02-16T00:57:01;4.68;;;1.67;;
21110;SDS011;10713;51.912;4.494;2024-02-16T00:59:27;4.10;;;1.90;;
21110;SDS011;10713;51.912;4.494;2024-02-16T01:01:53;4.20;;;1.90;;
21110;SDS011;10713;51.912;4.494;2024-02-16T01:04:19;2.72;;;1.95;;
21110;SDS011;10713;51.912;4.494;2024-02-16T01:06:44;5.70;;;2.05;;
21110;SDS011;10713;51.912;4.494;2024-02-16T01:09:09;7.10;;;2.13;;
21110;SDS011;10713;51.912;4.494;2024-02-16T01:11:38;4.82;;;2.30;;
21110;SDS011;10713;51.912;4.494;2024-02-16T01:14:05;2.92;;;1.58;;
21110;SDS011;10713;51.912;4.494;2024-02-16T01:16:30;4.70;;;2.03;;
21110;SDS011;10713;51.912;4.494;2024-02-16T01:18:55;4.95;;;2.28;;
21110;SDS011;10713;51.912;4.494;2024-02-16T01:21:21;3.92;;;1.80;;
21110;SDS011;10713;51.912;4.494;2024-02-16T01:23:47;4.82;;;1.67;;
21110;SDS011;10713;51.912;4.494;2024-02-16T01:26:13;5.53;;;2.35;;
21110;SDS011;10713;51.912;4.494;2024-02-16T01:28:38;4.65;;;1.92;;
21110;SDS011;10713;51.912;4.494;2024-02-16T01:31:04;4.75;;;2.17;;
21110;SDS011;10713;51.912;4.494;2024-02-16T01:33:29;4.70;;;1.90;;
21110;SDS011;10713;51.912;4.494;2024-02-16T01:35:54;3.80;;;2.15;;
21110;SDS011;10713;51.912;4.494;2024-02-16T01:38:21;3.85;;;2.05;;
21110;SDS011;10713;51.912;4.494;2024-02-16T01:40:47;5.35;;;2.00;;
21110;SDS011;10713;51.912;4.494;2024-02-16T01:43:13;6.00;;;2.03;;
21110;SDS011;10713;51.912;4.494;2024-02-16T01:45:43;5.40;;;2.20;;
21110;SDS011;10713;51.912;4.494;2024-02-16T01:48:08;3.67;;;1.75;;
21110;SDS011;10713;51.912;4.494;2024-02-16T01:50:34;6.15;;;2.10;;
21110;SDS011;10713;51.912;4.494;2024-02-16T01:52:59;2.97;;;1.77;;
21110;SDS011;10713;51.912;4.494;2024-02-16T01:55:24;3.65;;;1.95;;
21110;SDS011;10713;51.912;4.494;2024-02-16T01:57:51;5.05;;;1.65;;
21110;SDS011;10713;51.912;4.494;2024-02-16T02:00:17;4.85;;;2.45;;
21110;SDS011;10713;51.912;4.494;2024-02-16T02:02:45;2.55;;;1.70;;
21110;SDS011;10713;51.912;4.494;2024-02-16T02:05:11;3.45;;;1.83;;
21110;SDS011;10713;51.912;4.494;2024-02-16T02:07:38;3.95;;;1.38;;
21110;SDS011;10713;51.912;4.494;2024-02-16T02:10:03;3.67;;;1.95;;
21110;SDS011;10713;51.912;4.494;2024-02-16T02:12:29;5.32;;;2.30;;
21110;SDS011;10713;51.912;4.494;2024-02-16T02:14:54;5.20;;;2.28;;
21110;SDS011;10713;51.912;4.494;2024-02-16T02:17:20;3.40;;;1.98;;
21110;SDS011;10713;51.912;4.494;2024-02-16T02:19:45;4.22;;;1.75;;
21110;SDS011;10713;51.912;4.494;2024-02-16T02:22:17;4.07;;;2.00;;
21110;SDS011;10713;51.912;4.494;2024-02-16T02:24:44;5.32;;;2.05;;
21110;SDS011;10713;51.912;4.494;2024-02-16T02:27:10;3.28;;;1.75;;
21110;SDS011;10713;51.912;4.494;2024-02-16T02:29:39;6.18;;;2.55;;
21110;SDS011;10713;51.912;4.494;2024-02-16T02:32:05;5.60;;;2.03;;
21110;SDS011;10713;51.912;4.494;2024-02-16T02:34:31;3.92;;;2.05;;
21110;SDS011;10713;51.912;4.494;2024-02-16T02:36:57;3.67;;;1.90;;
21110;SDS011;10713;51.912;4.494;2024-02-16T02:39:22;4.07;;;1.85;;
21110;SDS011;10713;51.912;4.494;2024-02-16T02:41:48;3.92;;;1.88;;
21110;SDS011;10713;51.912;4.494;2024-02-16T02:44:13;4.18;;;1.98;;
21110;SDS011;10713;51.912;4.494;2024-02-16T02:46:38;5.13;;;2.13;;
21110;SDS011;10713;51.912;4.494;2024-02-16T02:49:04;3.97;;;1.83;;
21110;SDS011;10713;51.912;4.494;2024-02-16T02:51:29;5.03;;;1.55;;
21110;SDS011;10713;51.912;4.494;2024-02-16T02:53:55;6.97;;;1.63;;
21110;SDS011;10713;51.912;4.494;2024-02-16T02:56:21;3.47;;;1.90;;
21110;SDS011;10713;51.912;4.494;2024-02-16T02:58:46;3.22;;;1.90;;
21110;SDS011;10713;51.912;4.494;2024-02-16T03:01:12;3.78;;;2.22;;
21110;SDS011;10713;51.912;4.494;2024-02-16T03:03:38;7.53;;;2.13;;
21110;SDS011;10713;51.912;4.494;2024-02-16T03:06:04;3.70;;;1.80;;
21110;SDS011;10713;51.912;4.494;2024-02-16T03:08:30;4.22;;;2.15;;
21110;SDS011;10713;51.912;4.494;2024-02-16T03:10:55;4.25;;;2.20;;
21110;SDS011;10713;51.912;4.494;2024-02-16T03:13:21;3.95;;;1.90;;
21110;SDS011;10713;51.912;4.494;2024-02-16T03:15:46;3.83;;;2.00;;
21110;SDS011;10713;51.912;4.494;2024-02-16T03:18:11;4.85;;;2.17;;
21110;SDS011;10713;51.912;4.494;2024-02-16T03:20:37;3.45;;;2.00;;
21110;SDS011;10713;51.912;4.494;2024-02-16T03:23:02;2.95;;;1.90;;
21110;SDS011;10713;51.912;4.494;2024-02-16T03:25:28;3.85;;;2.22;;
21110;SDS011;10713;51.912;4.494;2024-02-16T03:27:54;5.07;;;2.00;;
21110;SDS011;10713;51.912;4.494;2024-02-16T03:30:19;4.53;;;2.40;;
21110;SDS011;10713;51.912;4.494;2024-02-16T03:32:48;3.85;;;2.05;;
21110;SDS011;10713;51.912;4.494;2024-02-16T03:35:14;3.28;;;2.03;;
21110;SDS011;10713;51.912;4.494;2024-02-16T03:37:40;2.97;;;2.00;;
21110;SDS011;10713;51.912;4.494;2024-02-16T03:40:07;3.38;;;1.90;;
21110;SDS011;10713;51.912;4.494;2024-02-16T03:42:33;12.98;;;2.10;;
21110;SDS011;10713;51.912;4.494;2024-02-16T03:44:59;3.92;;;2.42;;
21110;SDS011;10713;51.912;4.494;2024-02-16T03:47:24;3.88;;;2.25;;
21110;SDS011;10713;51.912;4.494;2024-02-16T03:49:50;5.43;;;2.05;;
21110;SDS011;10713;51.912;4.494;2024-02-16T03:52:15;4.13;;;1.83;;
21110;SDS011;10713;51.912;4.494;2024-02-16T03:54:40;7.78;;;2.00;;
21110;SDS011;10713;51.912;4.494;2024-02-16T03:57:08;5.82;;;1.80;;
21110;SDS011;10713;51.912;4.494;2024-02-16T03:59:36;2.90;;;2.13;;
21110;SDS011;10713;51.912;4.494;2024-02-16T04:02:02;6.82;;;2.20;;
21110;SDS011;10713;51.912;4.494;2024-02-16T04:04:27;3.30;;;1.75;;
21110;SDS011;10713;51.912;4.494;2024-02-16T04:06:53;3.40;;;2.28;;
21110;SDS011;10713;51.912;4.494;2024-02-16T04:09:18;4.25;;;1.98;;
21110;SDS011;10713;51.912;4.494;2024-02-16T04:11:44;4.38;;;2.00;;
21110;SDS011;10713;51.912;4.494;2024-02-16T04:14:10;4.28;;;2.22;;
21110;SDS011;10713;51.912;4.494;2024-02-16T04:16:36;5.78;;;2.20;;
21110;SDS011;10713;51.912;4.494;2024-02-16T04:19:02;4.32;;;2.30;;
21110;SDS011;10713;51.912;4.494;2024-02-16T04:21:27;5.45;;;2.17;;
21110;SDS011;10713;51.912;4.494;2024-02-16T04:23:53;3.55;;;2.05;;
21110;SDS011;10713;51.912;4.494;2024-02-16T04:26:18;3.83;;;1.83;;
21110;SDS011;10713;51.912;4.494;2024-02-16T04:28:44;3.83;;;2.10;;
21110;SDS011;10713;51.912;4.494;2024-02-16T04:31:09;3.42;;;2.22;;
21110;SDS011;10713;51.912;4.494;2024-02-16T04:33:34;7.15;;;2.40;;
21110;SDS011;10713;51.912;4.494;2024-02-16T04:36:00;4.90;;;2.13;;
21110;SDS011;10713;51.912;4.494;2024-02-16T04:38:25;3.83;;;1.95;;
21110;SDS011;10713;51.912;4.494;2024-02-16T04:40:50;2.92;;;1.65;;
21110;SDS011;10713;51.912;4.494;2024-02-16T04:43:16;4.72;;;2.17;;
21110;SDS011;10713;51.912;4.494;2024-02-16T04:45:41;4.50;;;2.53;;
21110;SDS011;10713;51.912;4.494;2024-02-16T04:48:07;3.45;;;1.77;;
21110;SDS011;10713;51.912;4.494;2024-02-16T04:50:33;4.38;;;2.03;;
21110;SDS011;10713;51.912;4.494;2024-02-16T04:53:00;4.53;;;2.00;;
21110;SDS011;10713;51.912;4.494;2024-02-16T04:55:28;6.35;;;2.13;;
21110;SDS011;10713;51.912;4.494;2024-02-16T04:57:55;4.55;;;2.30;;
21110;SDS011;10713;51.912;4.494;2024-02-16T05:00:21;6.97;;;2.53;;
21110;SDS011;10713;51.912;4.494;2024-02-16T05:02:47;3.60;;;1.90;;
21110;SDS011;10713;51.912;4.494;2024-02-16T05:05:12;2.95;;;1.92;;
21110;SDS011;10713;51.912;4.494;2024-02-16T05:07:37;3.38;;;2.17;;
21110;SDS011;10713;51.912;4.494;2024-02-16T05:10:03;3.35;;;2.10;;
21110;SDS011;10713;51.912;4.494;2024-02-16T05:12:33;5.25;;;2.58;;
21110;SDS011;10713;51.912;4.494;2024-02-16T05:14:59;5.78;;;2.03;;
21110;SDS011;10713;51.912;4.494;2024-02-16T05:17:24;5.95;;;2.40;;
21110;SDS011;10713;51.912;4.494;2024-02-16T05:19:50;5.68;;;2.70;;
21110;SDS011;10713;51.912;4.494;2024-02-16T05:22:15;7.80;;;2.35;;
21110;SDS011;10713;51.912;4.494;2024-02-16T05:24:42;6.65;;;2.40;;
21110;SDS011;10713;51.912;4.494;2024-02-16T05:27:07;3.58;;;2.13;;
21110;SDS011;10713;51.912;4.494;2024-02-16T05:29:33;4.97;;;2.00;;
21110;SDS011;10713;51.912;4.494;2024-02-16T05:31:58;6.40;;;2.33;;
21110;SDS011;10713;51.912;4.494;2024-02-16T05:34:24;8.90;;;2.30;;
21110;SDS011;10713;51.912;4.494;2024-02-16T05:36:50;4.45;;;2.38;;
21110;SDS011;10713;51.912;4.494;2024-02-16T05:39:16;3.70;;;2.25;;
21110;SDS011;10713;51.912;4.494;2024-02-16T05:41:56;3.40;;;1.98;;
21110;SDS011;10713;51.912;4.494;2024-02-16T05:44:21;7.13;;;2.55;;
21110;SDS011;10713;51.912;4.494;2024-02-16T05:46:47;3.75;;;2.25;;
21110;SDS011;10713;51.912;4.494;2024-02-16T05:49:13;4.70;;;2.53;;
21110;SDS011;10713;51.912;4.494;2024-02-16T05:51:41;4.18;;;2.50;;
21110;SDS011;10713;51.912;4.494;2024-02-16T05:54:27;4.20;;;2.40;;
21110;SDS011;10713;51.912;4.494;2024-02-16T05:56:52;4.68;;;2.40;;
21110;SDS011;10713;51.912;4.494;2024-02-16T05:59:18;4.15;;;2.65;;
21110;SDS011;10713;51.912;4.494;2024-02-16T06:01:43;7.95;;;2.47;;
21110;SDS011;10713;51.912;4.494;2024-02-16T06:04:08;7.03;;;2.80;;
21110;SDS011;10713;51.912;4.494;2024-02-16T06:06:35;4.93;;;2.65;;
21110;SDS011;10713;51.912;4.494;2024-02-16T06:09:01;6.53;;;2.78;;
21110;SDS011;10713;51.912;4.494;2024-02-16T06:11:26;4.10;;;2.30;;
21110;SDS011;10713;51.912;4.494;2024-02-16T06:13:51;3.72;;;2.08;;
21110;SDS011;10713;51.912;4.494;2024-02-16T06:16:17;5.45;;;2.55;;
21110;SDS011;10713;51.912;4.494;2024-02-16T06:18:42;4.43;;;1.98;;
21110;SDS011;10713;51.912;4.494;2024-02-16T06:21:07;5.40;;;2.28;;
21110;SDS011;10713;51.912;4.494;2024-02-16T06:23:33;5.82;;;2.83;;
21110;SDS011;10713;51.912;4.494;2024-02-16T06:25:58;6.05;;;2.38;;
21110;SDS011;10713;51.912;4.494;2024-02-16T06:28:24;5.75;;;2.67;;
21110;SDS011;10713;51.912;4.494;2024-02-16T06:30:49;6.25;;;3.00;;
21110;SDS011;10713;51.912;4.494;2024-02-16T06:33:14;5.07;;;2.50;;
21110;SDS011;10713;51.912;4.494;2024-02-16T06:35:40;5.03;;;2.38;;
21110;SDS011;10713;51.912;4.494;2024-02-16T06:38:05;5.15;;;2.00;;
21110;SDS011;10713;51.912;4.494;2024-02-16T06:40:31;4.32;;;2.95;;
21110;SDS011;10713;51.912;4.494;2024-02-16T06:42:57;5.28;;;2.70;;
21110;SDS011;10713;51.912;4.494;2024-02-16T06:45:22;8.85;;;3.08;;
21110;SDS011;10713;51.912;4.494;2024-02-16T06:47:47;4.07;;;2.00;;
21110;SDS011;10713;51.912;4.494;2024-02-16T06:50:13;4.15;;;2.45;;
21110;SDS011;10713;51.912;4.494;2024-02-16T06:52:38;8.02;;;2.45;;
21110;SDS011;10713;51.912;4.494;2024-02-16T06:55:04;4.93;;;2.20;;
21110;SDS011;10713;51.912;4.494;2024-02-16T06:57:29;5.90;;;2.88;;
21110;SDS011;10713;51.912;4.494;2024-02-16T06:59:56;5.20;;;2.70;;
21110;SDS011;10713;51.912;4.494;2024-02-16T07:02:22;6.07;;;2.47;;
21110;SDS011;10713;51.912;4.494;2024-02-16T07:04:48;5.72;;;2.45;;
21110;SDS011;10713;51.912;4.494;2024-02-16T07:07:13;5.05;;;2.75;;
21110;SDS011;10713;51.912;4.494;2024-02-16T07:09:39;4.97;;;2.42;;
21110;SDS011;10713;51.912;4.494;2024-02-16T07:12:04;8.43;;;2.92;;
21110;SDS011;10713;51.912;4.494;2024-02-16T07:14:31;9.65;;;3.10;;
21110;SDS011;10713;51.912;4.494;2024-02-16T07:16:57;6.20;;;2.72;;
21110;SDS011;10713;51.912;4.494;2024-02-16T07:19:22;6.38;;;2.92;;
21110;SDS011;10713;51.912;4.494;2024-02-16T07:21:47;5.15;;;2.88;;
21110;SDS011;10713;51.912;4.494;2024-02-16T07:24:13;4.43;;;2.50;;
21110;SDS011;10713;51.912;4.494;2024-02-16T07:26:40;6.32;;;2.83;;
21110;SDS011;10713;51.912;4.494;2024-02-16T07:29:05;8.52;;;2.95;;
21110;SDS011;10713;51.912;4.494;2024-02-16T07:31:34;4.97;;;2.70;;
21110;SDS011;10713;51.912;4.494;2024-02-16T07:34:00;6.68;;;2.92;;
21110;SDS011;10713;51.912;4.494;2024-02-16T07:36:26;8.32;;;2.92;;
21110;SDS011;10713;51.912;4.494;2024-02-16T07:38:51;7.00;;;2.95;;
21110;SDS011;10713;51.912;4.494;2024-02-16T07:41:16;5.68;;;2.50;;
21110;SDS011;10713;51.912;4.494;2024-02-16T07:43:42;7.22;;;2.58;;
21110;SDS011;10713;51.912;4.494;2024-02-16T07:46:07;4.93;;;2.42;;
21110;SDS011;10713;51.912;4.494;2024-02-16T07:48:33;9.60;;;2.70;;
21110;SDS011;10713;51.912;4.494;2024-02-16T07:50:59;7.10;;;3.08;;
21110;SDS011;10713;51.912;4.494;2024-02-16T07:53:27;9.20;;;3.05;;
21110;SDS011;10713;51.912;4.494;2024-02-16T07:55:53;8.00;;;2.70;;
21110;SDS011;10713;51.912;4.494;2024-02-16T07:58:19;5.85;;;3.25;;
21110;SDS011;10713;51.912;4.494;2024-02-16T08:00:44;5.30;;;3.22;;
21110;SDS011;10713;51.912;4.494;2024-02-16T08:03:09;10.07;;;3.03;;
21110;SDS011;10713;51.912;4.494;2024-02-16T08:05:35;7.78;;;3.30;;
21110;SDS011;10713;51.912;4.494;2024-02-16T08:08:00;5.88;;;2.92;;
21110;SDS011;10713;51.912;4.494;2024-02-16T08:10:26;7.78;;;3.05;;
21110;SDS011;10713;51.912;4.494;2024-02-16T08:12:51;6.63;;;2.92;;
21110;SDS011;10713;51.912;4.494;2024-02-16T08:15:17;8.35;;;3.28;;
21110;SDS011;10713;51.912;4.494;2024-02-16T08:17:48;7.25;;;2.83;;
21110;SDS011;10713;51.912;4.494;2024-02-16T08:20:16;5.07;;;2.70;;
21110;SDS011;10713;51.912;4.494;2024-02-16T08:22:42;9.10;;;3.13;;
21110;SDS011;10713;51.912;4.494;2024-02-16T08:25:07;6.47;;;2.90;;
21110;SDS011;10713;51.912;4.494;2024-02-16T08:27:33;5.93;;;3.10;;
21110;SDS011;10713;51.912;4.494;2024-02-16T08:29:58;9.80;;;3.58;;
21110;SDS011;10713;51.912;4.494;2024-02-16T08:32:24;9.20;;;3.20;;
21110;SDS011;10713;51.912;4.494;2024-02-16T08:34:52;6.30;;;3.33;;
21110;SDS011;10713;51.912;4.494;2024-02-16T08:37:17;7.78;;;3.40;;
21110;SDS011;10713;51.912;4.494;2024-02-16T08:39:43;8.50;;;3.30;;
21110;SDS011;10713;51.912;4.494;2024-02-16T08:42:08;11.27;;;3.78;;
21110;SDS011;10713;51.912;4.494;2024-02-16T08:44:34;14.70;;;3.75;;
21110;SDS011;10713;51.912;4.494;2024-02-16T08:46:59;6.93;;;3.97;;
21110;SDS011;10713;51.912;4.494;2024-02-16T08:49:25;8.05;;;3.72;;
21110;SDS011;10713;51.912;4.494;2024-02-16T08:51:50;10.35;;;4.13;;
21110;SDS011;10713;51.912;4.494;2024-02-16T08:54:16;8.20;;;3.85;;
21110;SDS011;10713;51.912;4.494;2024-02-16T08:56:43;10.35;;;3.45;;
21110;SDS011;10713;51.912;4.494;2024-02-16T08:59:10;7.75;;;3.60;;
21110;SDS011;10713;51.912;4.494;2024-02-16T09:01:37;8.30;;;3.35;;
21110;SDS011;10713;51.912;4.494;2024-02-16T09:04:04;8.75;;;3.45;;
21110;SDS011;10713;51.912;4.494;2024-02-16T09:06:30;9.10;;;3.55;;
21110;SDS011;10713;51.912;4.494;2024-02-16T09:08:55;8.13;;;3.47;;
21110;SDS011;10713;51.912;4.494;2024-02-16T09:11:21;12.65;;;3.40;;
21110;SDS011;10713;51.912;4.494;2024-02-16T09:13:47;8.38;;;3.53;;
21110;SDS011;10713;51.912;4.494;2024-02-16T09:16:13;8.27;;;3.55;;
21110;SDS011;10713;51.912;4.494;2024-02-16T09:18:38;9.32;;;3.95;;
21110;SDS011;10713;51.912;4.494;2024-02-16T09:21:04;6.82;;;3.75;;
21110;SDS011;10713;51.912;4.494;2024-02-16T09:23:31;11.65;;;3.83;;
21110;SDS011;10713;51.912;4.494;2024-02-16T09:25:56;9.32;;;3.47;;
21110;SDS011;10713;51.912;4.494;2024-02-16T09:28:22;16.20;;;4.32;;
21110;SDS011;10713;51.912;4.494;2024-02-16T09:30:47;9.75;;;3.45;;
21110;SDS011;10713;51.912;4.494;2024-02-16T09:33:13;14.32;;;4.80;;
21110;SDS011;10713;51.912;4.494;2024-02-16T09:35:41;13.48;;;4.00;;
21110;SDS011;10713;51.912;4.494;2024-02-16T09:38:06;11.20;;;4.45;;
21110;SDS011;10713;51.912;4.494;2024-02-16T09:40:32;11.07;;;3.88;;
21110;SDS011;10713;51.912;4.494;2024-02-16T09:42:58;7.72;;;3.97;;
21110;SDS011;10713;51.912;4.494;2024-02-16T09:45:23;14.02;;;5.25;;
21110;SDS011;10713;51.912;4.494;2024-02-16T09:47:49;12.45;;;5.47;;
21110;SDS011;10713;51.912;4.494;2024-02-16T09:50:16;11.45;;;4.53;;
21110;SDS011;10713;51.912;4.494;2024-02-16T09:52:46;11.02;;;5.03;;
21110;SDS011;10713;51.912;4.494;2024-02-16T09:55:13;18.83;;;5.78;;
21110;SDS011;10713;51.912;4.494;2024-02-16T09:57:38;13.23;;;4.70;;
21110;SDS011;10713;51.912;4.494;2024-02-16T10:00:04;17.25;;;5.80;;
21110;SDS011;10713;51.912;4.494;2024-02-16T10:02:45;20.40;;;5.65;;
21110;SDS011;10713;51.912;4.494;2024-02-16T10:05:19;15.10;;;5.63;;
21110;SDS011;10713;51.912;4.494;2024-02-16T10:07:46;11.77;;;4.88;;
21110;SDS011;10713;51.912;4.494;2024-02-16T10:10:27;14.93;;;5.45;;
21110;SDS011;10713;51.912;4.494;2024-02-16T10:13:00;12.57;;;4.88;;
21110;SDS011;10713;51.912;4.494;2024-02-16T10:15:26;9.45;;;4.80;;
21110;SDS011;10713;51.912;4.494;2024-02-16T10:17:58;19.60;;;5.15;;
21110;SDS011;10713;51.912;4.494;2024-02-16T10:20:28;13.10;;;5.03;;
21110;SDS011;10713;51.912;4.494;2024-02-16T10:23:06;18.15;;;5.55;;
21110;SDS011;10713;51.912;4.494;2024-02-16T10:25:34;13.38;;;5.00;;
21110;SDS011;10713;51.912;4.494;2024-02-16T10:28:06;9.73;;;4.63;;
21110;SDS011;10713;51.912;4.494;2024-02-16T10:30:36;14.43;;;5.00;;
21110;SDS011;10713;51.912;4.494;2024-02-16T10:33:04;16.40;;;5.82;;
21110;SDS011;10713;51.912;4.494;2024-02-16T10:35:31;15.10;;;4.97;;
21110;SDS011;10713;51.912;4.494;2024-02-16T10:38:00;18.48;;;5.30;;
21110;SDS011;10713;51.912;4.494;2024-02-16T10:40:29;15.75;;;5.05;;
21110;SDS011;10713;51.912;4.494;2024-02-16T10:42:57;8.55;;;4.38;;
21110;SDS011;10713;51.912;4.494;2024-02-16T10:45:29;13.65;;;5.22;;
21110;SDS011;10713;51.912;4.494;2024-02-16T10:47:56;11.32;;;4.88;;
21110;SDS011;10713;51.912;4.494;2024-02-16T10:50:21;11.32;;;4.82;;
21110;SDS011;10713;51.912;4.494;2024-02-16T10:52:48;9.25;;;4.53;;
21110;SDS011;10713;51.912;4.494;2024-02-16T10:55:14;11.45;;;5.03;;
21110;SDS011;10713;51.912;4.494;2024-02-16T10:57:41;12.57;;;4.28;;
21110;SDS011;10713;51.912;4.494;2024-02-16T11:00:09;12.23;;;4.50;;
21110;SDS011;10713;51.912;4.494;2024-02-16T11:02:54;8.02;;;4.47;;
21110;SDS011;10713;51.912;4.494;2024-02-16T11:08:11;9.70;;;4.80;;
21110;SDS011;10713;51.912;4.494;2024-02-16T11:10:38;11.85;;;5.05;;
21110;SDS011;10713;51.912;4.494;2024-02-16T11:13:04;18.52;;;6.20;;
21110;SDS011;10713;51.912;4.494;2024-02-16T11:15:33;11.82;;;5.22;;
21110;SDS011;10713;51.912;4.494;2024-02-16T11:18:00;13.07;;;5.28;;
21110;SDS011;10713;51.912;4.494;2024-02-16T11:20:26;9.27;;;4.93;;
21110;SDS011;10713;51.912;4.494;2024-02-16T11:22:52;14.63;;;5.18;;
21110;SDS011;10713;51.912;4.494;2024-02-16T11:25:18;9.85;;;4.57;;
21110;SDS011;10713;51.912;4.494;2024-02-16T11:27:45;8.30;;;4.05;;
21110;SDS011;10713;51.912;4.494;2024-02-16T11:30:12;7.15;;;4.10;;
21110;SDS011;10713;51.912;4.494;2024-02-16T11:32:37;10.52;;;4.18;;
21110;SDS011;10713;51.912;4.494;2024-02-16T11:35:08;5.82;;;3.53;;
21110;SDS011;10713;51.912;4.494;2024-02-16T11:37:34;7.75;;;4.28;;
21110;SDS011;10713;51.912;4.494;2024-02-16T11:39:59;8.20;;;3.25;;
21110;SDS011;10713;51.912;4.494;2024-02-16T11:42:25;6.10;;;3.40;;
21110;SDS011;10713;51.912;4.494;2024-02-16T11:44:52;10.40;;;3.50;;
21110;SDS011;10713;51.912;4.494;2024-02-16T11:47:19;8.80;;;3.38;;
21110;SDS011;10713;51.912;4.494;2024-02-16T11:50:01;10.68;;;3.47;;
21110;SDS011;10713;51.912;4.494;2024-02-16T11:52:28;6.60;;;3.08;;
21110;SDS011;10713;51.912;4.494;2024-02-16T11:54:54;6.82;;;3.08;;
21110;SDS011;10713;51.912;4.494;2024-02-16T11:57:19;7.07;;;3.55;;
21110;SDS011;10713;51.912;4.494;2024-02-16T11:59:45;9.23;;;2.85;;
21110;SDS011;10713;51.912;4.494;2024-02-16T12:02:16;6.85;;;2.85;;
21110;SDS011;10713;51.912;4.494;2024-02-16T12:04:46;13.68;;;3.00;;
21110;SDS011;10713;51.912;4.494;2024-02-16T12:07:12;7.30;;;3.03;;
21110;SDS011;10713;51.912;4.494;2024-02-16T12:09:39;10.55;;;3.05;;
21110;SDS011;10713;51.912;4.494;2024-02-16T12:12:05;11.50;;;2.92;;
21110;SDS011;10713;51.912;4.494;2024-02-16T12:14:30;6.15;;;2.22;;
21110;SDS011;10713;51.912;4.494;2024-02-16T12:16:56;4.70;;;2.10;;
21110;SDS011;10713;51.912;4.494;2024-02-16T12:19:23;7.57;;;2.53;;
21110;SDS011;10713;51.912;4.494;2024-02-16T12:21:49;3.92;;;2.22;;
21110;SDS011;10713;51.912;4.494;2024-02-16T12:24:18;5.50;;;2.42;;
21110;SDS011;10713;51.912;4.494;2024-02-16T12:26:44;6.38;;;2.70;;
21110;SDS011;10713;51.912;4.494;2024-02-16T12:29:09;18.25;;;3.40;;
21110;SDS011;10713;51.912;4.494;2024-02-16T12:31:41;7.50;;;2.70;;
21110;SDS011;10713;51.912;4.494;2024-02-16T12:34:08;7.50;;;2.47;;
21110;SDS011;10713;51.912;4.494;2024-02-16T12:36:34;9.10;;;2.70;;
21110;SDS011;10713;51.912;4.494;2024-02-16T12:39:00;6.82;;;3.30;;
21110;SDS011;10713;51.912;4.494;2024-02-16T12:41:25;5.20;;;2.78;;
21110;SDS011;10713;51.912;4.494;2024-02-16T12:43:51;7.05;;;2.42;;
21110;SDS011;10713;51.912;4.494;2024-02-16T12:46:16;6.75;;;3.10;;
21110;SDS011;10713;51.912;4.494;2024-02-16T12:48:42;4.47;;;2.35;;
21110;SDS011;10713;51.912;4.494;2024-02-16T12:51:07;9.27;;;3.60;;
21110;SDS011;10713;51.912;4.494;2024-02-16T12:53:32;7.97;;;4.07;;
21110;SDS011;10713;51.912;4.494;2024-02-16T12:56:05;8.05;;;3.95;;
21110;SDS011;10713;51.912;4.494;2024-02-16T12:58:32;8.35;;;4.43;;
21110;SDS011;10713;51.912;4.494;2024-02-16T13:00:57;6.00;;;3.33;;
21110;SDS011;10713;51.912;4.494;2024-02-16T13:03:23;7.65;;;3.80;;
21110;SDS011;10713;51.912;4.494;2024-02-16T13:05:48;7.57;;;3.92;;
21110;SDS011;10713;51.912;4.494;2024-02-16T13:08:14;7.88;;;3.95;;
21110;SDS011;10713;51.912;4.494;2024-02-16T13:10:39;8.30;;;3.60;;
21110;SDS011;10713;51.912;4.494;2024-02-16T13:13:05;12.88;;;3.97;;
21110;SDS011;10713;51.912;4.494;2024-02-16T13:15:30;9.82;;;3.58;;
21110;SDS011;10713;51.912;4.494;2024-02-16T13:17:55;8.70;;;3.30;;
21110;SDS011;10713;51.912;4.494;2024-02-16T13:20:21;7.55;;;3.35;;
21110;SDS011;10713;51.912;4.494;2024-02-16T13:22:46;5.90;;;3.08;;
21110;SDS011;10713;51.912;4.494;2024-02-16T13:25:11;8.70;;;3.33;;
21110;SDS011;10713;51.912;4.494;2024-02-16T13:27:37;10.25;;;3.88;;
21110;SDS011;10713;51.912;4.494;2024-02-16T13:30:02;9.63;;;3.50;;
21110;SDS011;10713;51.912;4.494;2024-02-16T13:32:31;10.00;;;3.60;;
21110;SDS011;10713;51.912;4.494;2024-02-16T13:34:57;7.70;;;3.22;;
21110;SDS011;10713;51.912;4.494;2024-02-16T13:37:24;5.90;;;3.35;;
21110;SDS011;10713;51.912;4.494;2024-02-16T13:39:49;7.75;;;3.30;;
21110;SDS011;10713;51.912;4.494;2024-02-16T13:42:14;6.28;;;3.17;;
21110;SDS011;10713;51.912;4.494;2024-02-16T13:44:40;8.82;;;3.08;;
21110;SDS011;10713;51.912;4.494;2024-02-16T13:47:05;6.93;;;3.10;;
21110;SDS011;10713;51.912;4.494;2024-02-16T13:49:31;13.50;;;3.80;;
21110;SDS011;10713;51.912;4.494;2024-02-16T13:51:56;16.35;;;3.97;;
21110;SDS011;10713;51.912;4.494;2024-02-16T13:54:24;11.80;;;3.30;;
21110;SDS011;10713;51.912;4.494;2024-02-16T13:56:50;9.23;;;3.08;;
21110;SDS011;10713;51.912;4.494;2024-02-16T13:59:15;6.25;;;2.83;;
21110;SDS011;10713;51.912;4.494;2024-02-16T14:01:41;10.70;;;3.15;;
21110;SDS011;10713;51.912;4.494;2024-02-16T14:04:06;9.95;;;3.85;;
21110;SDS011;10713;51.912;4.494;2024-02-16T14:06:32;7.57;;;3.80;;
21110;SDS011;10713;51.912;4.494;2024-02-16T14:08:57;9.02;;;3.15;;
21110;SDS011;10713;51.912;4.494;2024-02-16T14:11:22;8.90;;;3.60;;
21110;SDS011;10713;51.912;4.494;2024-02-16T14:13:48;7.13;;;3.35;;
21110;SDS011;10713;51.912;4.494;2024-02-16T14:16:14;11.38;;;3.70;;
21110;SDS011;10713;51.912;4.494;2024-02-16T14:18:39;9.48;;;3.40;;
21110;SDS011;10713;51.912;4.494;2024-02-16T14:21:05;10.00;;;3.75;;
21110;SDS011;10713;51.912;4.494;2024-02-16T14:23:30;8.75;;;3.75;;
21110;SDS011;10713;51.912;4.494;2024-02-16T14:25:56;16.08;;;3.90;;
21110;SDS011;10713;51.912;4.494;2024-02-16T14:28:23;8.68;;;4.15;;
21110;SDS011;10713;51.912;4.494;2024-02-16T14:30:49;7.20;;;3.67;;
21110;SDS011;10713;51.912;4.494;2024-02-16T14:33:15;11.23;;;3.22;;
21110;SDS011;10713;51.912;4.494;2024-02-16T14:35:42;7.15;;;3.80;;
21110;SDS011;10713;51.912;4.494;2024-02-16T14:38:08;6.13;;;3.67;;
21110;SDS011;10713;51.912;4.494;2024-02-16T14:40:33;7.63;;;3.65;;
21110;SDS011;10713;51.912;4.494;2024-02-16T14:42:59;6.78;;;3.63;;